F/V Jocka — WDG5937 — position and weather

sailwx.info

Track history (hours):
 
Tides and Currents Weather Stations Pressure Air Temp Water Temp Dewpoint Dewpoint Depression Visibility Wind Speed Wind Dir Waves Ship Positions

F/V Jocka

Owner: F/V Jocka, Harpswell, ME. More information available from US FCC via Universal Licensing System and Coast Guard Vessel Documentation Center.

Last reported at 2018-Feb-06 03:27 UTC. Time now 2018-Feb-24 22:05 UTC.
Position N 42°30' W 070°08'.
Warning: this ship's position is 18 days out of date.

Length 19 m.

Type: Ship. MMSI: 367551860.

Date/timePositionNaut miles runAvg speedWind from/ knotsBaromVisibWave heightAir tempDewpointWater temp
2018-Feb-06 03:27N 42°30' W 070°08'11 7.5
2018-Feb-06 02:00N 42°27' W 070°22'4 7.2
2018-Feb-06 01:30N 42°27' W 070°27'4 8.2
2018-Feb-06 01:00N 42°26' W 070°32'4 8.1
2018-Feb-06 00:30N 42°25' W 070°37'13 8.3
2018-Feb-05 22:59N 42°22' W 070°54'4 8.0
2018-Feb-05 22:30N 42°20' W 070°58'3 0.4
2018-Feb-05 14:22N 42°21' W 071°02'0 0.2
2018-Feb-05 13:53N 42°21' W 071°02'0 0.0
2018-Feb-05 13:29N 42°21' W 071°02'0 0.0
2018-Feb-05 13:00N 42°21' W 071°02'0 0.0
2018-Feb-05 12:30N 42°21' W 071°02'0 0.0
2018-Feb-05 11:57N 42°21' W 071°02'0 0.0
2018-Feb-05 10:29N 42°21' W 071°02'0 0.0
2018-Feb-05 10:00N 42°21' W 071°02'0 0.0
2018-Feb-05 09:30N 42°21' W 071°02'0 0.0
2018-Feb-05 09:00N 42°21' W 071°02'0 0.0
2018-Feb-05 08:30N 42°21' W 071°02'0 0.0
2018-Feb-05 08:00N 42°21' W 071°02'0 0.0
2018-Feb-05 07:30N 42°21' W 071°02'0 0.0
2018-Feb-05 06:59N 42°21' W 071°02'0 0.0
2018-Feb-05 06:30N 42°21' W 071°02'0 0.0
2018-Feb-05 05:26N 42°21' W 071°02'0 0.0
2018-Feb-05 04:58N 42°21' W 071°02'0 0.0
2018-Feb-05 04:30N 42°21' W 071°02'0 0.0
2018-Feb-05 03:46N 42°21' W 071°02'0 0.0
2018-Feb-05 03:26N 42°21' W 071°02'0 0.0
2018-Feb-05 02:58N 42°21' W 071°02'0 0.0
2018-Feb-05 02:21N 42°21' W 071°02'0 0.0
2018-Feb-05 01:55N 42°21' W 071°02'0 0.0
2018-Feb-05 01:25N 42°21' W 071°02'0 0.0
2018-Feb-04 23:16N 42°21' W 071°02'0 0.0
2018-Feb-04 22:54N 42°21' W 071°02'0 0.0
2018-Feb-04 22:29N 42°21' W 071°02'0 0.0
2018-Feb-04 21:52N 42°21' W 071°02'0 0.0
2018-Feb-04 21:21N 42°21' W 071°02'0 0.0
2018-Feb-04 20:49N 42°21' W 071°02'0 0.0
2018-Feb-04 19:59N 42°21' W 071°02'0 0.0
2018-Feb-04 19:24N 42°21' W 071°02'0 0.0
2018-Feb-04 18:58N 42°21' W 071°02'0 0.0
2018-Feb-04 18:31N 42°21' W 071°02'0 0.0
2018-Feb-04 18:00N 42°21' W 071°02'0 0.0
2018-Feb-04 17:30N 42°21' W 071°02'0 0.0
2018-Feb-04 15:30N 42°21' W 071°02'0 0.0
2018-Feb-04 14:59N 42°21' W 071°02'0 0.0
2018-Feb-04 14:28N 42°21' W 071°02'0 0.0
2018-Feb-04 13:59N 42°21' W 071°02'0 0.0
2018-Feb-04 13:30N 42°21' W 071°02'0 0.0
2018-Feb-04 12:59N 42°21' W 071°02'0 0.0
2018-Feb-04 12:29N 42°21' W 071°02'0 0.0
2018-Feb-04 11:59N 42°21' W 071°02'0 0.0
2018-Feb-04 11:29N 42°21' W 071°02'0 0.0
2018-Feb-04 10:00N 42°21' W 071°02'0 0.0
2018-Feb-04 09:00N 42°21' W 071°02'0 0.0
2018-Feb-04 08:30N 42°21' W 071°02'0 0.0
2018-Feb-04 08:00N 42°21' W 071°02'0 0.0
2018-Feb-04 07:29N 42°21' W 071°02'0 0.0
2018-Feb-04 06:56N 42°21' W 071°02'0 0.0
2018-Feb-04 06:26N 42°21' W 071°02'0 0.0
2018-Feb-04 05:58N 42°21' W 071°02'0 0.0
2018-Feb-04 05:21N 42°21' W 071°02'0 0.0
2018-Feb-04 04:58N 42°21' W 071°02'0 0.0
2018-Feb-04 04:17N 42°21' W 071°02'0 0.0
2018-Feb-04 03:51N 42°21' W 071°02'0 0.0
2018-Feb-04 03:30N 42°21' W 071°02'0 0.0
2018-Feb-04 02:43N 42°21' W 071°02'0 0.0
2018-Feb-04 02:30N 42°21' W 071°02'0 0.0
2018-Feb-04 02:00N 42°21' W 071°02'0 0.0
2018-Feb-04 01:30N 42°21' W 071°02'0 0.0
2018-Feb-04 01:00N 42°21' W 071°02'0 0.0
2018-Feb-04 00:26N 42°21' W 071°02'0 0.0
2018-Feb-03 23:59N 42°21' W 071°02'0 0.0
2018-Feb-03 23:27N 42°21' W 071°02'0 0.0
2018-Feb-03 23:00N 42°21' W 071°02'0 0.0
2018-Feb-03 22:29N 42°21' W 071°02'0 0.0
2018-Feb-03 21:56N 42°21' W 071°02'0 0.0
2018-Feb-03 21:30N 42°21' W 071°02'0 0.0
2018-Feb-03 20:54N 42°21' W 071°02'0 0.0
2018-Feb-03 20:26N 42°21' W 071°02'0 0.0
2018-Feb-03 20:00N 42°21' W 071°02'0 0.0
2018-Feb-03 18:22N 42°21' W 071°02'0 0.0
2018-Feb-03 15:08N 42°21' W 071°02'0 0.1
2018-Feb-03 14:50N 42°21' W 071°02'0 0.0
2018-Feb-03 14:28N 42°21' W 071°02'0 0.0
2018-Feb-03 13:53N 42°21' W 071°02'0 0.0
2018-Feb-03 13:28N 42°21' W 071°02'0 0.0
2018-Feb-03 12:58N 42°21' W 071°02'0 0.0
2018-Feb-03 12:19N 42°21' W 071°02'0 0.0
2018-Feb-03 11:57N 42°21' W 071°02'0 0.0
2018-Feb-03 11:22N 42°21' W 071°02'0 0.0
2018-Feb-03 10:59N 42°21' W 071°02'0 0.0
2018-Feb-03 10:30N 42°21' W 071°02'0 0.0
2018-Feb-03 10:00N 42°21' W 071°02'0 0.0
2018-Feb-03 09:28N 42°21' W 071°02'0 0.0
2018-Feb-03 09:00N 42°21' W 071°02'0 0.0
2018-Feb-03 08:30N 42°21' W 071°02'0 0.0
2018-Feb-03 08:00N 42°21' W 071°02'0 0.0
2018-Feb-03 06:27N 42°21' W 071°02'0 0.0
2018-Feb-03 06:00N 42°21' W 071°02'0 0.0
2018-Feb-03 05:30N 42°21' W 071°02'0 0.0
2018-Feb-03 05:01N 42°21' W 071°02'0 0.0
2018-Feb-03 03:59N 42°21' W 071°02'0 0.0
2018-Feb-03 03:29N 42°21' W 071°02'0 0.0
2018-Feb-03 01:59N 42°21' W 071°02'0 0.0
2018-Feb-03 01:28N 42°21' W 071°02'0 0.0
2018-Feb-03 01:00N 42°21' W 071°02'0 0.0
2018-Feb-02 23:44N 42°21' W 071°02'0 0.0
2018-Feb-02 23:30N 42°21' W 071°02'1 2.3
2018-Feb-02 22:57N 42°21' W 071°01'3 5.7
2018-Feb-02 22:29N 42°20' W 070°57'3 5.5
2018-Feb-02 22:00N 42°22' W 070°55'3 6.3
2018-Feb-02 21:30N 42°23' W 070°51'3 6.5
2018-Feb-02 21:00N 42°24' W 070°46'3 6.4
2018-Feb-02 20:30N 42°25' W 070°42'3 6.4
2018-Feb-02 20:00N 42°26' W 070°38'6 6.0
2018-Feb-02 19:00N 42°29' W 070°31'3 6.3
2018-Feb-02 18:30N 42°30' W 070°27'3 6.2
2018-Feb-02 18:01N 42°30' W 070°23'3 6.1
2018-Feb-02 17:30N 42°31' W 070°19'3 6.2
2018-Feb-02 16:59N 42°32' W 070°14'3 6.3
2018-Feb-02 16:30N 42°33' W 070°11'  
2018-Jan-30 23:36N 42°42' W 070°17'1 4.9
2018-Jan-30 23:27N 42°41' W 070°18'2 4.8
2018-Jan-30 23:00N 42°41' W 070°21'2 4.7
2018-Jan-30 22:30N 42°40' W 070°24'5 4.7
2018-Jan-30 21:30N 42°38' W 070°30'2 4.7
2018-Jan-30 21:01N 42°37' W 070°33'3 5.2
2018-Jan-30 20:31N 42°36' W 070°36'3 6.1
2018-Jan-30 20:00N 42°34' W 070°40'2 4.9
2018-Jan-30 19:31N 42°37' W 070°39'0 0.0
2018-Jan-30 19:00N 42°37' W 070°39'0 0.0
2018-Jan-30 18:30N 42°37' W 070°39'0 0.0
2018-Jan-30 18:00N 42°37' W 070°39'0 0.0
2018-Jan-30 17:30N 42°37' W 070°39'0 0.0
2018-Jan-30 17:00N 42°37' W 070°39'0 0.0
2018-Jan-30 16:30N 42°37' W 070°39'0 0.0
2018-Jan-30 16:00N 42°37' W 070°39'0 0.0
2018-Jan-30 15:30N 42°37' W 070°39'0 0.0
2018-Jan-30 15:00N 42°37' W 070°39'0 0.0
2018-Jan-30 14:30N 42°37' W 070°39'0 0.0
2018-Jan-30 13:30N 42°37' W 070°39'0 0.0
2018-Jan-30 13:00N 42°37' W 070°39'0 0.0
2018-Jan-30 12:30N 42°37' W 070°39'0 0.0
2018-Jan-30 12:00N 42°37' W 070°39'0 0.0
2018-Jan-30 11:30N 42°37' W 070°39'0 0.0
2018-Jan-30 10:30N 42°37' W 070°39'0 0.0
2018-Jan-30 09:30N 42°37' W 070°39'0 0.0
2018-Jan-30 09:00N 42°37' W 070°39'0 0.0
2018-Jan-30 08:30N 42°37' W 070°39'0 0.0
2018-Jan-30 08:00N 42°37' W 070°39'0 0.0
2018-Jan-30 07:30N 42°37' W 070°39'0 0.0
2018-Jan-30 06:59N 42°37' W 070°39'0 0.0
2018-Jan-30 06:30N 42°37' W 070°39'0 0.0
2018-Jan-30 06:00N 42°37' W 070°39'0 0.0
2018-Jan-30 05:30N 42°37' W 070°39'0 0.0
2018-Jan-30 05:00N 42°37' W 070°39'0 0.0
2018-Jan-30 04:30N 42°37' W 070°39'0 0.0
2018-Jan-30 04:00N 42°37' W 070°39'0 0.0
2018-Jan-30 03:30N 42°37' W 070°39'0 0.0
2018-Jan-30 03:00N 42°37' W 070°39'0 0.0
2018-Jan-30 02:30N 42°37' W 070°39'0 0.0
2018-Jan-30 02:00N 42°37' W 070°39'0 0.0
2018-Jan-30 01:30N 42°37' W 070°39'0 0.0
2018-Jan-30 01:00N 42°37' W 070°39'0 0.0
2018-Jan-30 00:30N 42°37' W 070°39'0 0.0
2018-Jan-30 00:00N 42°37' W 070°39'0 0.0
2018-Jan-29 23:30N 42°37' W 070°39'0 0.0
2018-Jan-29 23:00N 42°37' W 070°39'0 0.0
2018-Jan-29 22:30N 42°37' W 070°39'0 0.0
2018-Jan-29 22:00N 42°37' W 070°39'0 0.0
2018-Jan-29 21:30N 42°37' W 070°39'0 0.0
2018-Jan-29 21:00N 42°37' W 070°39'0 0.0
2018-Jan-29 20:30N 42°37' W 070°39'0 0.0
2018-Jan-29 20:00N 42°37' W 070°39'0 0.0
2018-Jan-29 19:30N 42°37' W 070°39'0 0.0
2018-Jan-29 19:00N 42°37' W 070°39'0 0.0
2018-Jan-29 18:30N 42°37' W 070°39'0 0.0
2018-Jan-29 18:00N 42°37' W 070°39'0 0.0
2018-Jan-29 17:30N 42°37' W 070°39'0 0.0
2018-Jan-29 17:00N 42°37' W 070°39'0 0.0
2018-Jan-29 16:30N 42°37' W 070°39'0 0.0
2018-Jan-29 16:00N 42°37' W 070°39'0 0.0
2018-Jan-29 15:30N 42°37' W 070°39'0 0.0
2018-Jan-29 15:00N 42°37' W 070°39'0 0.0
2018-Jan-29 14:30N 42°37' W 070°39'0 0.0
2018-Jan-29 14:00N 42°37' W 070°39'0 0.0
2018-Jan-29 13:30N 42°37' W 070°39'0 0.0
2018-Jan-29 13:00N 42°37' W 070°39'0 0.0
2018-Jan-29 12:30N 42°37' W 070°39'0 0.0
2018-Jan-29 12:00N 42°37' W 070°39'0 0.0
2018-Jan-29 11:30N 42°37' W 070°39'0 0.0
2018-Jan-29 11:00N 42°37' W 070°39'0 0.0
2018-Jan-29 10:30N 42°37' W 070°39'0 0.0
2018-Jan-29 10:00N 42°37' W 070°39'0 0.0
2018-Jan-29 09:30N 42°37' W 070°39'0 0.0
2018-Jan-29 09:00N 42°37' W 070°39'0 0.0
2018-Jan-29 08:30N 42°37' W 070°39'0 0.0
2018-Jan-29 08:00N 42°37' W 070°39'0 0.0
2018-Jan-29 07:30N 42°37' W 070°39'0 0.0
2018-Jan-29 07:00N 42°37' W 070°39'0 0.0
2018-Jan-29 06:30N 42°37' W 070°39'0 0.0
2018-Jan-29 06:00N 42°37' W 070°39'0 0.0
2018-Jan-29 05:30N 42°37' W 070°39'0 0.0
2018-Jan-29 05:00N 42°37' W 070°39'0 0.0
2018-Jan-29 04:30N 42°37' W 070°39'0 0.0
2018-Jan-29 04:00N 42°37' W 070°39'0 0.0
2018-Jan-29 03:30N 42°37' W 070°39'0 0.0
2018-Jan-29 03:00N 42°37' W 070°39'0 0.0
2018-Jan-29 02:30N 42°37' W 070°39'0 0.0
2018-Jan-29 02:00N 42°37' W 070°39'0 0.0
2018-Jan-29 01:30N 42°37' W 070°39'0 0.0
2018-Jan-29 01:00N 42°37' W 070°39'0 0.0
2018-Jan-29 00:30N 42°37' W 070°39'0 0.0
2018-Jan-29 00:00N 42°37' W 070°39'0 0.0
2018-Jan-28 23:30N 42°37' W 070°39'0 0.0
2018-Jan-28 23:00N 42°37' W 070°39'0 0.0
2018-Jan-28 22:30N 42°37' W 070°39'0 0.0
2018-Jan-28 22:00N 42°37' W 070°39'0 0.0
2018-Jan-28 21:30N 42°37' W 070°39'0 0.0
2018-Jan-28 21:01N 42°37' W 070°39'0 0.0
2018-Jan-28 20:31N 42°37' W 070°39'0 0.0
2018-Jan-28 20:00N 42°37' W 070°39'0 0.0
2018-Jan-28 19:30N 42°37' W 070°39'0 0.0
2018-Jan-28 19:01N 42°37' W 070°39'0 0.0
2018-Jan-28 18:30N 42°37' W 070°39'0 0.0
2018-Jan-28 18:00N 42°37' W 070°39'0 0.0
2018-Jan-28 17:30N 42°37' W 070°39'0 0.0
2018-Jan-28 17:01N 42°37' W 070°39'0 0.0
2018-Jan-28 16:30N 42°37' W 070°39'0 0.0
2018-Jan-28 16:01N 42°37' W 070°39'0 0.0
2018-Jan-28 15:30N 42°37' W 070°39'0 0.0
2018-Jan-28 15:00N 42°37' W 070°39'0 0.0
2018-Jan-28 14:30N 42°37' W 070°39'0 0.0
2018-Jan-28 14:01N 42°37' W 070°39'0 0.0
2018-Jan-28 13:30N 42°37' W 070°39'0 0.0
2018-Jan-28 13:00N 42°37' W 070°39'0 0.0
2018-Jan-28 12:30N 42°37' W 070°39'0 0.0
2018-Jan-28 12:00N 42°37' W 070°39'0 0.0
2018-Jan-28 11:31N 42°37' W 070°39'0 0.0
2018-Jan-28 11:01N 42°37' W 070°39'0 0.0
2018-Jan-28 10:31N 42°37' W 070°39'0 0.0
2018-Jan-28 10:00N 42°37' W 070°39'0 0.0
2018-Jan-28 09:31N 42°37' W 070°39'0 0.0
2018-Jan-28 09:01N 42°37' W 070°39'0 0.0
2018-Jan-28 08:31N 42°37' W 070°39'0 0.0
2018-Jan-28 08:00N 42°37' W 070°39'0 0.0
2018-Jan-28 07:30N 42°37' W 070°39'0 0.0
2018-Jan-28 07:01N 42°37' W 070°39'0 0.0
2018-Jan-28 06:29N 42°37' W 070°39'0 0.0
2018-Jan-28 06:00N 42°37' W 070°39'0 0.0
2018-Jan-28 05:30N 42°37' W 070°39'0 0.0
2018-Jan-28 05:00N 42°37' W 070°39'0 0.0
2018-Jan-28 04:30N 42°37' W 070°39'0 0.0
2018-Jan-28 04:00N 42°37' W 070°39'0 0.0
2018-Jan-28 03:30N 42°37' W 070°39'0 0.0
2018-Jan-28 03:00N 42°37' W 070°39'0 0.0
2018-Jan-28 02:30N 42°37' W 070°39'0 0.0
2018-Jan-28 02:00N 42°37' W 070°39'0 0.0
2018-Jan-28 01:30N 42°37' W 070°39'0 0.0
2018-Jan-28 01:00N 42°37' W 070°39'0 0.0
2018-Jan-28 00:31N 42°37' W 070°39'0 0.0
2018-Jan-28 00:00N 42°37' W 070°39'0 0.0
2018-Jan-27 23:30N 42°37' W 070°39'0 0.0
2018-Jan-27 23:01N 42°37' W 070°39'0 0.0
2018-Jan-27 22:30N 42°37' W 070°39'0 0.0
2018-Jan-27 22:00N 42°37' W 070°39'0 0.0
2018-Jan-27 21:30N 42°37' W 070°39'0 0.0
2018-Jan-27 21:01N 42°37' W 070°39'0 0.0
2018-Jan-27 20:30N 42°37' W 070°39'0 0.0
2018-Jan-27 20:00N 42°37' W 070°39'0 0.0
2018-Jan-27 19:28N 42°37' W 070°39'0 0.0
2018-Jan-27 19:00N 42°37' W 070°39'0 0.0
2018-Jan-27 18:30N 42°37' W 070°39'0 0.0
2018-Jan-27 18:00N 42°37' W 070°39'0 0.0
2018-Jan-27 17:30N 42°37' W 070°39'0 0.0
2018-Jan-27 17:01N 42°37' W 070°39'0 0.0
2018-Jan-27 16:30N 42°37' W 070°39'0 0.0
2018-Jan-27 16:00N 42°37' W 070°39'0 0.0
2018-Jan-27 15:30N 42°37' W 070°39'0 0.0
2018-Jan-27 15:00N 42°37' W 070°39'0 0.0
2018-Jan-27 14:30N 42°37' W 070°39'0 0.0
2018-Jan-27 14:00N 42°37' W 070°39'0 0.0
2018-Jan-27 13:30N 42°37' W 070°39'0 0.0
2018-Jan-27 13:00N 42°37' W 070°39'0 0.0
2018-Jan-27 12:31N 42°37' W 070°39'0 0.0
2018-Jan-27 12:00N 42°37' W 070°39'0 0.0
2018-Jan-27 11:30N 42°37' W 070°39'0 0.0
2018-Jan-27 11:00N 42°37' W 070°39'0 0.0
2018-Jan-27 10:31N 42°37' W 070°39'0 0.0
2018-Jan-27 10:00N 42°37' W 070°39'0 0.0
2018-Jan-27 09:30N 42°37' W 070°39'0 0.0
2018-Jan-27 09:00N 42°37' W 070°39'0 0.0
2018-Jan-27 08:31N 42°37' W 070°39'0 0.0
2018-Jan-27 07:59N 42°37' W 070°39'0 0.0
2018-Jan-27 07:30N 42°37' W 070°39'0 0.0
2018-Jan-27 07:01N 42°37' W 070°39'0 0.0
2018-Jan-27 06:31N 42°37' W 070°39'0 0.0
2018-Jan-27 06:00N 42°37' W 070°39'0 0.0
2018-Jan-27 05:30N 42°37' W 070°39'0 0.0
2018-Jan-27 05:01N 42°37' W 070°39'0 0.0
2018-Jan-27 04:30N 42°37' W 070°39'0 0.0
2018-Jan-27 04:01N 42°37' W 070°39'0 0.0
2018-Jan-27 03:30N 42°37' W 070°39'  
Track history (hours):
 
Tides and Currents Weather Stations Pressure Air Temp Water Temp Dewpoint Dewpoint Depression Visibility Wind Speed Wind Dir Waves Ship Positions

F/V Jocka

Owner: F/V Jocka, Harpswell, ME. More information available from US FCC via Universal Licensing System and Coast Guard Vessel Documentation Center.

Last reported at 2018-Feb-06 03:27 UTC. Time now 2018-Feb-24 22:05 UTC.
Position N 42°30' W 070°08'.
Warning: this ship's position is 18 days out of date.

Length 19 m.

Type: Ship. MMSI: 367551860.

Date/timePositionNaut miles runAvg speedWind from/ knotsBaromVisibWave heightAir tempDewpointWater temp
2018-Feb-06 03:27N 42°30' W 070°08'11 7.5
2018-Feb-06 02:00N 42°27' W 070°22'4 7.2
2018-Feb-06 01:30N 42°27' W 070°27'4 8.2
2018-Feb-06 01:00N 42°26' W 070°32'4 8.1
2018-Feb-06 00:30N 42°25' W 070°37'13 8.3
2018-Feb-05 22:59N 42°22' W 070°54'4 8.0
2018-Feb-05 22:30N 42°20' W 070°58'3 0.4
2018-Feb-05 14:22N 42°21' W 071°02'0 0.2
2018-Feb-05 13:53N 42°21' W 071°02'0 0.0
2018-Feb-05 13:29N 42°21' W 071°02'0 0.0
2018-Feb-05 13:00N 42°21' W 071°02'0 0.0
2018-Feb-05 12:30N 42°21' W 071°02'0 0.0
2018-Feb-05 11:57N 42°21' W 071°02'0 0.0
2018-Feb-05 10:29N 42°21' W 071°02'0 0.0
2018-Feb-05 10:00N 42°21' W 071°02'0 0.0
2018-Feb-05 09:30N 42°21' W 071°02'0 0.0
2018-Feb-05 09:00N 42°21' W 071°02'0 0.0
2018-Feb-05 08:30N 42°21' W 071°02'0 0.0
2018-Feb-05 08:00N 42°21' W 071°02'0 0.0
2018-Feb-05 07:30N 42°21' W 071°02'0 0.0
2018-Feb-05 06:59N 42°21' W 071°02'0 0.0
2018-Feb-05 06:30N 42°21' W 071°02'0 0.0
2018-Feb-05 05:26N 42°21' W 071°02'0 0.0
2018-Feb-05 04:58N 42°21' W 071°02'0 0.0
2018-Feb-05 04:30N 42°21' W 071°02'0 0.0
2018-Feb-05 03:46N 42°21' W 071°02'0 0.0
2018-Feb-05 03:26N 42°21' W 071°02'0 0.0
2018-Feb-05 02:58N 42°21' W 071°02'0 0.0
2018-Feb-05 02:21N 42°21' W 071°02'0 0.0
2018-Feb-05 01:55N 42°21' W 071°02'0 0.0
2018-Feb-05 01:25N 42°21' W 071°02'0 0.0
2018-Feb-04 23:16N 42°21' W 071°02'0 0.0
2018-Feb-04 22:54N 42°21' W 071°02'0 0.0
2018-Feb-04 22:29N 42°21' W 071°02'0 0.0
2018-Feb-04 21:52N 42°21' W 071°02'0 0.0
2018-Feb-04 21:21N 42°21' W 071°02'0 0.0
2018-Feb-04 20:49N 42°21' W 071°02'0 0.0
2018-Feb-04 19:59N 42°21' W 071°02'0 0.0
2018-Feb-04 19:24N 42°21' W 071°02'0 0.0
2018-Feb-04 18:58N 42°21' W 071°02'0 0.0
2018-Feb-04 18:31N 42°21' W 071°02'0 0.0
2018-Feb-04 18:00N 42°21' W 071°02'0 0.0
2018-Feb-04 17:30N 42°21' W 071°02'0 0.0
2018-Feb-04 15:30N 42°21' W 071°02'0 0.0
2018-Feb-04 14:59N 42°21' W 071°02'0 0.0
2018-Feb-04 14:28N 42°21' W 071°02'0 0.0
2018-Feb-04 13:59N 42°21' W 071°02'0 0.0
2018-Feb-04 13:30N 42°21' W 071°02'0 0.0
2018-Feb-04 12:59N 42°21' W 071°02'0 0.0
2018-Feb-04 12:29N 42°21' W 071°02'0 0.0
2018-Feb-04 11:59N 42°21' W 071°02'0 0.0
2018-Feb-04 11:29N 42°21' W 071°02'0 0.0
2018-Feb-04 10:00N 42°21' W 071°02'0 0.0
2018-Feb-04 09:00N 42°21' W 071°02'0 0.0
2018-Feb-04 08:30N 42°21' W 071°02'0 0.0
2018-Feb-04 08:00N 42°21' W 071°02'0 0.0
2018-Feb-04 07:29N 42°21' W 071°02'0 0.0
2018-Feb-04 06:56N 42°21' W 071°02'0 0.0
2018-Feb-04 06:26N 42°21' W 071°02'0 0.0
2018-Feb-04 05:58N 42°21' W 071°02'0 0.0
2018-Feb-04 05:21N 42°21' W 071°02'0 0.0
2018-Feb-04 04:58N 42°21' W 071°02'0 0.0
2018-Feb-04 04:17N 42°21' W 071°02'0 0.0
2018-Feb-04 03:51N 42°21' W 071°02'0 0.0
2018-Feb-04 03:30N 42°21' W 071°02'0 0.0
2018-Feb-04 02:43N 42°21' W 071°02'0 0.0
2018-Feb-04 02:30N 42°21' W 071°02'0 0.0
2018-Feb-04 02:00N 42°21' W 071°02'0 0.0
2018-Feb-04 01:30N 42°21' W 071°02'0 0.0
2018-Feb-04 01:00N 42°21' W 071°02'0 0.0
2018-Feb-04 00:26N 42°21' W 071°02'0 0.0
2018-Feb-03 23:59N 42°21' W 071°02'0 0.0
2018-Feb-03 23:27N 42°21' W 071°02'0 0.0
2018-Feb-03 23:00N 42°21' W 071°02'0 0.0
2018-Feb-03 22:29N 42°21' W 071°02'0 0.0
2018-Feb-03 21:56N 42°21' W 071°02'0 0.0
2018-Feb-03 21:30N 42°21' W 071°02'0 0.0
2018-Feb-03 20:54N 42°21' W 071°02'0 0.0
2018-Feb-03 20:26N 42°21' W 071°02'0 0.0
2018-Feb-03 20:00N 42°21' W 071°02'0 0.0
2018-Feb-03 18:22N 42°21' W 071°02'0 0.0
2018-Feb-03 15:08N 42°21' W 071°02'0 0.1
2018-Feb-03 14:50N 42°21' W 071°02'0 0.0
2018-Feb-03 14:28N 42°21' W 071°02'0 0.0
2018-Feb-03 13:53N 42°21' W 071°02'0 0.0
2018-Feb-03 13:28N 42°21' W 071°02'0 0.0
2018-Feb-03 12:58N 42°21' W 071°02'0 0.0
2018-Feb-03 12:19N 42°21' W 071°02'0 0.0
2018-Feb-03 11:57N 42°21' W 071°02'0 0.0
2018-Feb-03 11:22N 42°21' W 071°02'0 0.0
2018-Feb-03 10:59N 42°21' W 071°02'0 0.0
2018-Feb-03 10:30N 42°21' W 071°02'0 0.0
2018-Feb-03 10:00N 42°21' W 071°02'0 0.0
2018-Feb-03 09:28N 42°21' W 071°02'0 0.0
2018-Feb-03 09:00N 42°21' W 071°02'0 0.0
2018-Feb-03 08:30N 42°21' W 071°02'0 0.0
2018-Feb-03 08:00N 42°21' W 071°02'0 0.0
2018-Feb-03 06:27N 42°21' W 071°02'0 0.0
2018-Feb-03 06:00N 42°21' W 071°02'0 0.0
2018-Feb-03 05:30N 42°21' W 071°02'0 0.0
2018-Feb-03 05:01N 42°21' W 071°02'0 0.0
2018-Feb-03 03:59N 42°21' W 071°02'0 0.0
2018-Feb-03 03:29N 42°21' W 071°02'0 0.0
2018-Feb-03 01:59N 42°21' W 071°02'0 0.0
2018-Feb-03 01:28N 42°21' W 071°02'0 0.0
2018-Feb-03 01:00N 42°21' W 071°02'0 0.0
2018-Feb-02 23:44N 42°21' W 071°02'0 0.0
2018-Feb-02 23:30N 42°21' W 071°02'1 2.3
2018-Feb-02 22:57N 42°21' W 071°01'3 5.7
2018-Feb-02 22:29N 42°20' W 070°57'3 5.5
2018-Feb-02 22:00N 42°22' W 070°55'3 6.3
2018-Feb-02 21:30N 42°23' W 070°51'3 6.5
2018-Feb-02 21:00N 42°24' W 070°46'3 6.4
2018-Feb-02 20:30N 42°25' W 070°42'3 6.4
2018-Feb-02 20:00N 42°26' W 070°38'6 6.0
2018-Feb-02 19:00N 42°29' W 070°31'3 6.3
2018-Feb-02 18:30N 42°30' W 070°27'3 6.2
2018-Feb-02 18:01N 42°30' W 070°23'3 6.1
2018-Feb-02 17:30N 42°31' W 070°19'3 6.2
2018-Feb-02 16:59N 42°32' W 070°14'3 6.3
2018-Feb-02 16:30N 42°33' W 070°11'  
2018-Jan-30 23:36N 42°42' W 070°17'1 4.9
2018-Jan-30 23:27N 42°41' W 070°18'2 4.8
2018-Jan-30 23:00N 42°41' W 070°21'2 4.7
2018-Jan-30 22:30N 42°40' W 070°24'5 4.7
2018-Jan-30 21:30N 42°38' W 070°30'2 4.7
2018-Jan-30 21:01N 42°37' W 070°33'3 5.2
2018-Jan-30 20:31N 42°36' W 070°36'3 6.1
2018-Jan-30 20:00N 42°34' W 070°40'2 4.9
2018-Jan-30 19:31N 42°37' W 070°39'0 0.0
2018-Jan-30 19:00N 42°37' W 070°39'0 0.0
2018-Jan-30 18:30N 42°37' W 070°39'0 0.0
2018-Jan-30 18:00N 42°37' W 070°39'0 0.0
2018-Jan-30 17:30N 42°37' W 070°39'0 0.0
2018-Jan-30 17:00N 42°37' W 070°39'0 0.0
2018-Jan-30 16:30N 42°37' W 070°39'0 0.0
2018-Jan-30 16:00N 42°37' W 070°39'0 0.0
2018-Jan-30 15:30N 42°37' W 070°39'0 0.0
2018-Jan-30 15:00N 42°37' W 070°39'0 0.0
2018-Jan-30 14:30N 42°37' W 070°39'0 0.0
2018-Jan-30 13:30N 42°37' W 070°39'0 0.0
2018-Jan-30 13:00N 42°37' W 070°39'0 0.0
2018-Jan-30 12:30N 42°37' W 070°39'0 0.0
2018-Jan-30 12:00N 42°37' W 070°39'0 0.0
2018-Jan-30 11:30N 42°37' W 070°39'0 0.0
2018-Jan-30 10:30N 42°37' W 070°39'0 0.0
2018-Jan-30 09:30N 42°37' W 070°39'0 0.0
2018-Jan-30 09:00N 42°37' W 070°39'0 0.0
2018-Jan-30 08:30N 42°37' W 070°39'0 0.0
2018-Jan-30 08:00N 42°37' W 070°39'0 0.0
2018-Jan-30 07:30N 42°37' W 070°39'0 0.0
2018-Jan-30 06:59N 42°37' W 070°39'0 0.0
2018-Jan-30 06:30N 42°37' W 070°39'0 0.0
2018-Jan-30 06:00N 42°37' W 070°39'0 0.0
2018-Jan-30 05:30N 42°37' W 070°39'0 0.0
2018-Jan-30 05:00N 42°37' W 070°39'0 0.0
2018-Jan-30 04:30N 42°37' W 070°39'0 0.0
2018-Jan-30 04:00N 42°37' W 070°39'0 0.0
2018-Jan-30 03:30N 42°37' W 070°39'0 0.0
2018-Jan-30 03:00N 42°37' W 070°39'0 0.0
2018-Jan-30 02:30N 42°37' W 070°39'0 0.0
2018-Jan-30 02:00N 42°37' W 070°39'0 0.0
2018-Jan-30 01:30N 42°37' W 070°39'0 0.0
2018-Jan-30 01:00N 42°37' W 070°39'0 0.0
2018-Jan-30 00:30N 42°37' W 070°39'0 0.0
2018-Jan-30 00:00N 42°37' W 070°39'0 0.0
2018-Jan-29 23:30N 42°37' W 070°39'0 0.0
2018-Jan-29 23:00N 42°37' W 070°39'0 0.0
2018-Jan-29 22:30N 42°37' W 070°39'0 0.0
2018-Jan-29 22:00N 42°37' W 070°39'0 0.0
2018-Jan-29 21:30N 42°37' W 070°39'0 0.0
2018-Jan-29 21:00N 42°37' W 070°39'0 0.0
2018-Jan-29 20:30N 42°37' W 070°39'0 0.0
2018-Jan-29 20:00N 42°37' W 070°39'0 0.0
2018-Jan-29 19:30N 42°37' W 070°39'0 0.0
2018-Jan-29 19:00N 42°37' W 070°39'0 0.0
2018-Jan-29 18:30N 42°37' W 070°39'0 0.0
2018-Jan-29 18:00N 42°37' W 070°39'0 0.0
2018-Jan-29 17:30N 42°37' W 070°39'0 0.0
2018-Jan-29 17:00N 42°37' W 070°39'0 0.0
2018-Jan-29 16:30N 42°37' W 070°39'0 0.0
2018-Jan-29 16:00N 42°37' W 070°39'0 0.0
2018-Jan-29 15:30N 42°37' W 070°39'0 0.0
2018-Jan-29 15:00N 42°37' W 070°39'0 0.0
2018-Jan-29 14:30N 42°37' W 070°39'0 0.0
2018-Jan-29 14:00N 42°37' W 070°39'0 0.0
2018-Jan-29 13:30N 42°37' W 070°39'0 0.0
2018-Jan-29 13:00N 42°37' W 070°39'0 0.0
2018-Jan-29 12:30N 42°37' W 070°39'0 0.0
2018-Jan-29 12:00N 42°37' W 070°39'0 0.0
2018-Jan-29 11:30N 42°37' W 070°39'0 0.0
2018-Jan-29 11:00N 42°37' W 070°39'0 0.0
2018-Jan-29 10:30N 42°37' W 070°39'0 0.0
2018-Jan-29 10:00N 42°37' W 070°39'0 0.0
2018-Jan-29 09:30N 42°37' W 070°39'0 0.0
2018-Jan-29 09:00N 42°37' W 070°39'0 0.0
2018-Jan-29 08:30N 42°37' W 070°39'0 0.0
2018-Jan-29 08:00N 42°37' W 070°39'0 0.0
2018-Jan-29 07:30N 42°37' W 070°39'0 0.0
2018-Jan-29 07:00N 42°37' W 070°39'0 0.0
2018-Jan-29 06:30N 42°37' W 070°39'0 0.0
2018-Jan-29 06:00N 42°37' W 070°39'0 0.0
2018-Jan-29 05:30N 42°37' W 070°39'0 0.0
2018-Jan-29 05:00N 42°37' W 070°39'0 0.0
2018-Jan-29 04:30N 42°37' W 070°39'0 0.0
2018-Jan-29 04:00N 42°37' W 070°39'0 0.0
2018-Jan-29 03:30N 42°37' W 070°39'0 0.0
2018-Jan-29 03:00N 42°37' W 070°39'0 0.0
2018-Jan-29 02:30N 42°37' W 070°39'0 0.0
2018-Jan-29 02:00N 42°37' W 070°39'0 0.0
2018-Jan-29 01:30N 42°37' W 070°39'0 0.0
2018-Jan-29 01:00N 42°37' W 070°39'0 0.0
2018-Jan-29 00:30N 42°37' W 070°39'0 0.0
2018-Jan-29 00:00N 42°37' W 070°39'0 0.0
2018-Jan-28 23:30N 42°37' W 070°39'0 0.0
2018-Jan-28 23:00N 42°37' W 070°39'0 0.0
2018-Jan-28 22:30N 42°37' W 070°39'0 0.0
2018-Jan-28 22:00N 42°37' W 070°39'0 0.0
2018-Jan-28 21:30N 42°37' W 070°39'0 0.0
2018-Jan-28 21:01N 42°37' W 070°39'0 0.0
2018-Jan-28 20:31N 42°37' W 070°39'0 0.0
2018-Jan-28 20:00N 42°37' W 070°39'0 0.0
2018-Jan-28 19:30N 42°37' W 070°39'0 0.0
2018-Jan-28 19:01N 42°37' W 070°39'0 0.0
2018-Jan-28 18:30N 42°37' W 070°39'0 0.0
2018-Jan-28 18:00N 42°37' W 070°39'0 0.0
2018-Jan-28 17:30N 42°37' W 070°39'0 0.0
2018-Jan-28 17:01N 42°37' W 070°39'0 0.0
2018-Jan-28 16:30N 42°37' W 070°39'0 0.0
2018-Jan-28 16:01N 42°37' W 070°39'0 0.0
2018-Jan-28 15:30N 42°37' W 070°39'0 0.0
2018-Jan-28 15:00N 42°37' W 070°39'0 0.0
2018-Jan-28 14:30N 42°37' W 070°39'0 0.0
2018-Jan-28 14:01N 42°37' W 070°39'0 0.0
2018-Jan-28 13:30N 42°37' W 070°39'0 0.0
2018-Jan-28 13:00N 42°37' W 070°39'0 0.0
2018-Jan-28 12:30N 42°37' W 070°39'0 0.0
2018-Jan-28 12:00N 42°37' W 070°39'0 0.0
2018-Jan-28 11:31N 42°37' W 070°39'0 0.0
2018-Jan-28 11:01N 42°37' W 070°39'0 0.0
2018-Jan-28 10:31N 42°37' W 070°39'0 0.0
2018-Jan-28 10:00N 42°37' W 070°39'0 0.0
2018-Jan-28 09:31N 42°37' W 070°39'0 0.0
2018-Jan-28 09:01N 42°37' W 070°39'0 0.0
2018-Jan-28 08:31N 42°37' W 070°39'0 0.0
2018-Jan-28 08:00N 42°37' W 070°39'0 0.0
2018-Jan-28 07:30N 42°37' W 070°39'0 0.0
2018-Jan-28 07:01N 42°37' W 070°39'0 0.0
2018-Jan-28 06:29N 42°37' W 070°39'0 0.0
2018-Jan-28 06:00N 42°37' W 070°39'0 0.0
2018-Jan-28 05:30N 42°37' W 070°39'0 0.0
2018-Jan-28 05:00N 42°37' W 070°39'0 0.0
2018-Jan-28 04:30N 42°37' W 070°39'0 0.0
2018-Jan-28 04:00N 42°37' W 070°39'0 0.0
2018-Jan-28 03:30N 42°37' W 070°39'0 0.0
2018-Jan-28 03:00N 42°37' W 070°39'0 0.0
2018-Jan-28 02:30N 42°37' W 070°39'0 0.0
2018-Jan-28 02:00N 42°37' W 070°39'0 0.0
2018-Jan-28 01:30N 42°37' W 070°39'0 0.0
2018-Jan-28 01:00N 42°37' W 070°39'0 0.0
2018-Jan-28 00:31N 42°37' W 070°39'0 0.0
2018-Jan-28 00:00N 42°37' W 070°39'0 0.0
2018-Jan-27 23:30N 42°37' W 070°39'0 0.0
2018-Jan-27 23:01N 42°37' W 070°39'0 0.0
2018-Jan-27 22:30N 42°37' W 070°39'0 0.0
2018-Jan-27 22:00N 42°37' W 070°39'0 0.0
2018-Jan-27 21:30N 42°37' W 070°39'0 0.0
2018-Jan-27 21:01N 42°37' W 070°39'0 0.0
2018-Jan-27 20:30N 42°37' W 070°39'0 0.0
2018-Jan-27 20:00N 42°37' W 070°39'0 0.0
2018-Jan-27 19:28N 42°37' W 070°39'0 0.0
2018-Jan-27 19:00N 42°37' W 070°39'0 0.0
2018-Jan-27 18:30N 42°37' W 070°39'0 0.0
2018-Jan-27 18:00N 42°37' W 070°39'0 0.0
2018-Jan-27 17:30N 42°37' W 070°39'0 0.0
2018-Jan-27 17:01N 42°37' W 070°39'0 0.0
2018-Jan-27 16:30N 42°37' W 070°39'0 0.0
2018-Jan-27 16:00N 42°37' W 070°39'0 0.0
2018-Jan-27 15:30N 42°37' W 070°39'0 0.0
2018-Jan-27 15:00N 42°37' W 070°39'0 0.0
2018-Jan-27 14:30N 42°37' W 070°39'0 0.0
2018-Jan-27 14:00N 42°37' W 070°39'0 0.0
2018-Jan-27 13:30N 42°37' W 070°39'0 0.0
2018-Jan-27 13:00N 42°37' W 070°39'0 0.0
2018-Jan-27 12:31N 42°37' W 070°39'0 0.0
2018-Jan-27 12:00N 42°37' W 070°39'0 0.0
2018-Jan-27 11:30N 42°37' W 070°39'0 0.0
2018-Jan-27 11:00N 42°37' W 070°39'0 0.0
2018-Jan-27 10:31N 42°37' W 070°39'0 0.0
2018-Jan-27 10:00N 42°37' W 070°39'0 0.0
2018-Jan-27 09:30N 42°37' W 070°39'0 0.0
2018-Jan-27 09:00N 42°37' W 070°39'0 0.0
2018-Jan-27 08:31N 42°37' W 070°39'0 0.0
2018-Jan-27 07:59N 42°37' W 070°39'0 0.0
2018-Jan-27 07:30N 42°37' W 070°39'0 0.0
2018-Jan-27 07:01N 42°37' W 070°39'0 0.0
2018-Jan-27 06:31N 42°37' W 070°39'0 0.0
2018-Jan-27 06:00N 42°37' W 070°39'0 0.0
2018-Jan-27 05:30N 42°37' W 070°39'0 0.0
2018-Jan-27 05:01N 42°37' W 070°39'0 0.0
2018-Jan-27 04:30N 42°37' W 070°39'0 0.0
2018-Jan-27 04:01N 42°37' W 070°39'0 0.0
2018-Jan-27 03:30N 42°37' W 070°39'  

Dump ship's entire track history